sensor_id;sensor_type;location;lat;lon;timestamp;pressure;altitude;pressure_sealevel;temperature;humidity
60101;BME280;45978;53.646;55.930;2022-11-02T00:00:12;97105.31;;;1.24;75.98
60101;BME280;45978;53.646;55.930;2022-11-02T00:01:32;97091.88;;;1.14;75.66
60101;BME280;45978;53.646;55.930;2022-11-02T00:02:37;97108.91;;;1.19;75.93
60101;BME280;45978;53.646;55.930;2022-11-02T00:03:39;97104.44;;;1.25;75.72
60101;BME280;45978;53.646;55.930;2022-11-02T00:04:41;97112.28;;;1.22;76.03
60101;BME280;45978;53.646;55.930;2022-11-02T00:05:42;97108.25;;;1.14;75.64
60101;BME280;45978;53.646;55.930;2022-11-02T00:06:43;97098.00;;;1.11;75.60
60101;BME280;45978;53.646;55.930;2022-11-02T00:07:45;97098.00;;;1.11;75.79
60101;BME280;45978;53.646;55.930;2022-11-02T00:08:46;97092.88;;;1.10;75.50
60101;BME280;45978;53.646;55.930;2022-11-02T00:09:48;97093.53;;;1.16;75.96
60101;BME280;45978;53.646;55.930;2022-11-02T00:10:49;97094.53;;;1.12;75.55
60101;BME280;45978;53.646;55.930;2022-11-02T00:11:54;97107.47;;;1.12;75.69
60101;BME280;45978;53.646;55.930;2022-11-02T00:12:55;97107.50;;;1.11;75.84
60101;BME280;45978;53.646;55.930;2022-11-02T00:13:57;97095.75;;;1.02;75.31
60101;BME280;45978;53.646;55.930;2022-11-02T00:14:59;97104.94;;;1.11;75.75
60101;BME280;45978;53.646;55.930;2022-11-02T00:16:05;97095.66;;;1.05;75.48
60101;BME280;45978;53.646;55.930;2022-11-02T00:17:09;97090.78;;;0.96;75.60
60101;BME280;45978;53.646;55.930;2022-11-02T00:18:11;97106.59;;;1.12;75.49
60101;BME280;45978;53.646;55.930;2022-11-02T00:19:13;97090.66;;;1.01;75.26
60101;BME280;45978;53.646;55.930;2022-11-02T00:20:17;97098.19;;;1.07;75.42
60101;BME280;45978;53.646;55.930;2022-11-02T00:21:20;97094.81;;;1.05;75.62
60101;BME280;45978;53.646;55.930;2022-11-02T00:22:22;97101.56;;;1.09;75.44
60101;BME280;45978;53.646;55.930;2022-11-02T00:23:23;97106.72;;;1.09;75.33
60101;BME280;45978;53.646;55.930;2022-11-02T00:24:26;97099.19;;;1.03;75.37
60101;BME280;45978;53.646;55.930;2022-11-02T00:25:28;97097.53;;;1.00;75.09
60101;BME280;45978;53.646;55.930;2022-11-02T00:26:31;97101.59;;;1.07;75.84
60101;BME280;45978;53.646;55.930;2022-11-02T00:27:34;97102.38;;;1.09;75.76
60101;BME280;45978;53.646;55.930;2022-11-02T00:28:36;97093.00;;;1.07;75.67
60101;BME280;45978;53.646;55.930;2022-11-02T00:29:41;97098.41;;;1.01;75.26
60101;BME280;45978;53.646;55.930;2022-11-02T00:30:43;97095.03;;;0.98;75.31
60101;BME280;45978;53.646;55.930;2022-11-02T00:31:46;97106.94;;;1.03;75.90
60101;BME280;45978;53.646;55.930;2022-11-02T00:32:52;97087.41;;;0.94;75.09
60101;BME280;45978;53.646;55.930;2022-11-02T00:33:53;97101.78;;;1.03;75.50
60101;BME280;45978;53.646;55.930;2022-11-02T00:34:54;97096.75;;;0.98;75.39
60101;BME280;45978;53.646;55.930;2022-11-02T00:35:57;97107.56;;;1.09;75.28
60101;BME280;45978;53.646;55.930;2022-11-02T00:36:58;97093.31;;;0.97;75.21
60101;BME280;45978;53.646;55.930;2022-11-02T00:38:00;97094.91;;;1.02;75.38
60101;BME280;45978;53.646;55.930;2022-11-02T00:39:01;97097.22;;;1.09;75.52
60101;BME280;45978;53.646;55.930;2022-11-02T00:40:03;97105.81;;;1.10;75.44
60101;BME280;45978;53.646;55.930;2022-11-02T00:41:05;97097.19;;;1.11;75.27
60101;BME280;45978;53.646;55.930;2022-11-02T00:42:09;97108.81;;;1.23;75.76
60101;BME280;45978;53.646;55.930;2022-11-02T00:43:11;97094.16;;;1.23;75.41
60101;BME280;45978;53.646;55.930;2022-11-02T00:44:13;97097.56;;;1.24;75.23
60101;BME280;45978;53.646;55.930;2022-11-02T00:45:17;97095.09;;;1.21;75.26
60101;BME280;45978;53.646;55.930;2022-11-02T00:46:18;97094.28;;;1.20;75.42
60101;BME280;45978;53.646;55.930;2022-11-02T00:47:24;97100.06;;;1.02;75.05
60101;BME280;45978;53.646;55.930;2022-11-02T00:48:27;97103.97;;;1.13;75.54
60101;BME280;45978;53.646;55.930;2022-11-02T00:49:29;97111.66;;;1.15;75.24
60101;BME280;45978;53.646;55.930;2022-11-02T00:50:33;97103.22;;;1.10;75.61
60101;BME280;45978;53.646;55.930;2022-11-02T00:51:35;97099.81;;;1.09;75.34
60101;BME280;45978;53.646;55.930;2022-11-02T00:52:39;97110.09;;;1.11;75.31
60101;BME280;45978;53.646;55.930;2022-11-02T00:53:42;97093.00;;;1.07;75.66
60101;BME280;45978;53.646;55.930;2022-11-02T00:54:44;97106.38;;;1.18;75.30
60101;BME280;45978;53.646;55.930;2022-11-02T00:55:45;97103.00;;;1.16;75.53
60101;BME280;45978;53.646;55.930;2022-11-02T00:56:47;97100.91;;;1.02;75.49
60101;BME280;45978;53.646;55.930;2022-11-02T00:57:49;97109.44;;;1.04;75.30
60101;BME280;45978;53.646;55.930;2022-11-02T00:58:50;97114.44;;;1.10;75.67
60101;BME280;45978;53.646;55.930;2022-11-02T00:59:52;97112.63;;;1.12;75.76
60101;BME280;45978;53.646;55.930;2022-11-02T01:00:53;97119.66;;;1.09;75.63
60101;BME280;45978;53.646;55.930;2022-11-02T01:01:56;97113.69;;;1.07;76.01
60101;BME280;45978;53.646;55.930;2022-11-02T01:02:59;97112.81;;;1.06;75.79
60101;BME280;45978;53.646;55.930;2022-11-02T01:04:01;97123.91;;;1.10;75.49
60101;BME280;45978;53.646;55.930;2022-11-02T01:05:04;97121.19;;;1.14;75.89
60101;BME280;45978;53.646;55.930;2022-11-02T01:06:12;97123.91;;;1.10;76.48
60101;BME280;45978;53.646;55.930;2022-11-02T01:07:14;97118.91;;;1.05;76.02
60101;BME280;45978;53.646;55.930;2022-11-02T01:08:17;97120.78;;;1.00;75.94
60101;BME280;45978;53.646;55.930;2022-11-02T01:09:19;97133.13;;;0.92;76.33
60101;BME280;45978;53.646;55.930;2022-11-02T01:10:23;97133.91;;;0.94;76.63
60101;BME280;45978;53.646;55.930;2022-11-02T01:11:26;97125.28;;;0.95;76.77
60101;BME280;45978;53.646;55.930;2022-11-02T01:12:27;97117.75;;;0.89;76.74
60101;BME280;45978;53.646;55.930;2022-11-02T01:13:28;97123.03;;;0.84;76.79
60101;BME280;45978;53.646;55.930;2022-11-02T01:14:30;97112.84;;;0.81;77.48
60101;BME280;45978;53.646;55.930;2022-11-02T01:15:31;97123.31;;;0.76;77.91
60101;BME280;45978;53.646;55.930;2022-11-02T01:16:33;97126.00;;;0.73;77.82
60101;BME280;45978;53.646;55.930;2022-11-02T01:17:37;97128.47;;;0.76;78.35
60101;BME280;45978;53.646;55.930;2022-11-02T01:18:39;97113.75;;;0.78;78.39
60101;BME280;45978;53.646;55.930;2022-11-02T01:19:41;97134.41;;;0.78;78.36
60101;BME280;45978;53.646;55.930;2022-11-02T01:20:42;97139.00;;;0.70;78.90
60101;BME280;45978;53.646;55.930;2022-11-02T01:21:44;97131.13;;;0.75;79.22
60101;BME280;45978;53.646;55.930;2022-11-02T01:22:45;97139.59;;;0.78;79.14
60101;BME280;45978;53.646;55.930;2022-11-02T01:23:47;97139.78;;;0.72;79.94
60101;BME280;45978;53.646;55.930;2022-11-02T01:24:48;97130.50;;;0.67;79.96
60101;BME280;45978;53.646;55.930;2022-11-02T01:25:52;97137.53;;;0.63;81.05
60101;BME280;45978;53.646;55.930;2022-11-02T01:26:53;97138.66;;;0.54;81.35
60101;BME280;45978;53.646;55.930;2022-11-02T01:27:55;97124.91;;;0.54;81.58
60101;BME280;45978;53.646;55.930;2022-11-02T01:28:56;97129.66;;;0.66;80.83
60101;BME280;45978;53.646;55.930;2022-11-02T01:29:57;97131.31;;;0.69;80.63
60101;BME280;45978;53.646;55.930;2022-11-02T01:31:01;97128.03;;;0.64;81.24
60101;BME280;45978;53.646;55.930;2022-11-02T01:32:03;97128.09;;;0.62;81.39
60101;BME280;45978;53.646;55.930;2022-11-02T01:33:05;97131.38;;;0.67;80.79
60101;BME280;45978;53.646;55.930;2022-11-02T01:34:10;97132.41;;;0.62;81.03
60101;BME280;45978;53.646;55.930;2022-11-02T01:35:11;97137.59;;;0.62;81.19
60101;BME280;45978;53.646;55.930;2022-11-02T01:36:14;97140.78;;;0.68;81.17
60101;BME280;45978;53.646;55.930;2022-11-02T01:37:17;97134.03;;;0.64;81.38
60101;BME280;45978;53.646;55.930;2022-11-02T01:38:18;97136.63;;;0.64;81.33
60101;BME280;45978;53.646;55.930;2022-11-02T01:39:20;97109.41;;;0.54;81.21
60101;BME280;45978;53.646;55.930;2022-11-02T01:40:21;97116.66;;;0.43;81.65
60101;BME280;45978;53.646;55.930;2022-11-02T01:41:22;97123.13;;;0.56;81.65
60101;BME280;45978;53.646;55.930;2022-11-02T01:42:25;97130.75;;;0.59;81.28
60101;BME280;45978;53.646;55.930;2022-11-02T01:43:30;97134.88;;;0.65;81.29
60101;BME280;45978;53.646;55.930;2022-11-02T01:44:34;97110.63;;;0.44;81.52
60101;BME280;45978;53.646;55.930;2022-11-02T01:45:35;97145.31;;;0.62;81.82
60101;BME280;45978;53.646;55.930;2022-11-02T01:46:40;97142.63;;;0.65;81.46
60101;BME280;45978;53.646;55.930;2022-11-02T01:47:45;97138.41;;;0.62;81.04
60101;BME280;45978;53.646;55.930;2022-11-02T01:49:03;97137.34;;;0.69;81.14
60101;BME280;45978;53.646;55.930;2022-11-02T01:50:31;97136.47;;;0.69;81.53
60101;BME280;45978;53.646;55.930;2022-11-02T01:51:40;97139.78;;;0.72;81.29
60101;BME280;45978;53.646;55.930;2022-11-02T01:52:42;97138.22;;;0.68;80.98
60101;BME280;45978;53.646;55.930;2022-11-02T01:53:45;97135.66;;;0.67;81.13
60101;BME280;45978;53.646;55.930;2022-11-02T01:55:14;97130.63;;;0.64;80.99
60101;BME280;45978;53.646;55.930;2022-11-02T01:56:16;97140.03;;;0.65;80.99
60101;BME280;45978;53.646;55.930;2022-11-02T01:57:21;97149.13;;;0.76;80.98
60101;BME280;45978;53.646;55.930;2022-11-02T01:58:25;97148.13;;;0.81;80.62
60101;BME280;45978;53.646;55.930;2022-11-02T01:59:31;97137.38;;;0.68;80.33
60101;BME280;45978;53.646;55.930;2022-11-02T02:00:35;97143.28;;;0.71;80.40
60101;BME280;45978;53.646;55.930;2022-11-02T02:01:39;97124.63;;;0.63;80.18
60101;BME280;45978;53.646;55.930;2022-11-02T02:04:10;97131.66;;;0.58;79.85
60101;BME280;45978;53.646;55.930;2022-11-02T02:05:20;97144.16;;;0.70;80.31
60101;BME280;45978;53.646;55.930;2022-11-02T02:06:22;97128.88;;;0.64;80.26
60101;BME280;45978;53.646;55.930;2022-11-02T02:07:27;97129.66;;;0.66;80.37
60101;BME280;45978;53.646;55.930;2022-11-02T02:08:35;97138.88;;;0.75;79.93
60101;BME280;45978;53.646;55.930;2022-11-02T02:09:39;97135.50;;;0.73;79.61
60101;BME280;45978;53.646;55.930;2022-11-02T02:10:41;97132.91;;;0.73;79.43
60101;BME280;45978;53.646;55.930;2022-11-02T02:11:43;97136.38;;;0.72;79.74
60101;BME280;45978;53.646;55.930;2022-11-02T02:12:45;97141.53;;;0.72;79.48
60101;BME280;45978;53.646;55.930;2022-11-02T02:13:53;97149.28;;;0.72;79.79
60101;BME280;45978;53.646;55.930;2022-11-02T02:15:17;97143.25;;;0.73;79.90
60101;BME280;45978;53.646;55.930;2022-11-02T02:17:49;97145.91;;;0.70;79.59
60101;BME280;45978;53.646;55.930;2022-11-02T02:18:59;97148.34;;;0.74;79.79
60101;BME280;45978;53.646;55.930;2022-11-02T02:21:56;97153.63;;;0.71;79.64
60101;BME280;45978;53.646;55.930;2022-11-02T02:23:10;97150.84;;;0.77;79.52
60101;BME280;45978;53.646;55.930;2022-11-02T02:31:15;97158.63;;;0.76;80.08
60101;BME280;45978;53.646;55.930;2022-11-02T02:34:53;97144.91;;;0.74;80.20
60101;BME280;45978;53.646;55.930;2022-11-02T02:36:09;97163.94;;;0.71;79.67
60101;BME280;45978;53.646;55.930;2022-11-02T02:37:26;97158.75;;;0.73;79.70
60101;BME280;45978;53.646;55.930;2022-11-02T02:42:35;97160.47;;;0.72;80.07
60101;BME280;45978;53.646;55.930;2022-11-02T02:43:48;97153.63;;;0.71;80.29
60101;BME280;45978;53.646;55.930;2022-11-02T02:46:07;97168.16;;;0.74;80.09
60101;BME280;45978;53.646;55.930;2022-11-02T02:47:15;97170.66;;;0.77;79.90
60101;BME280;45978;53.646;55.930;2022-11-02T02:48:22;97165.38;;;0.80;80.12
60101;BME280;45978;53.646;55.930;2022-11-02T02:50:48;97177.34;;;0.83;80.05
60101;BME280;45978;53.646;55.930;2022-11-02T02:51:52;97171.13;;;0.88;80.54
60101;BME280;45978;53.646;55.930;2022-11-02T02:52:57;97166.22;;;0.81;80.13
60101;BME280;45978;53.646;55.930;2022-11-02T02:54:04;97178.09;;;0.86;80.09
60101;BME280;45978;53.646;55.930;2022-11-02T02:55:12;97174.75;;;0.83;80.49
60101;BME280;45978;53.646;55.930;2022-11-02T02:56:18;97184.03;;;0.88;80.13
60101;BME280;45978;53.646;55.930;2022-11-02T02:57:22;97180.84;;;0.82;80.72
60101;BME280;45978;53.646;55.930;2022-11-02T02:58:31;97181.53;;;0.87;80.03
60101;BME280;45978;53.646;55.930;2022-11-02T02:59:42;97189.97;;;0.92;80.70
60101;BME280;45978;53.646;55.930;2022-11-02T03:00:46;97175.50;;;0.86;80.53
60101;BME280;45978;53.646;55.930;2022-11-02T03:01:48;97176.66;;;0.77;80.35
60101;BME280;45978;53.646;55.930;2022-11-02T03:02:51;97190.97;;;0.88;81.01
60101;BME280;45978;53.646;55.930;2022-11-02T03:04:01;97186.59;;;0.90;80.54
60101;BME280;45978;53.646;55.930;2022-11-02T03:05:22;97194.91;;;0.98;80.44
60101;BME280;45978;53.646;55.930;2022-11-02T03:06:28;97195.72;;;1.00;80.78
60101;BME280;45978;53.646;55.930;2022-11-02T03:07:34;97194.28;;;0.91;80.59
60101;BME280;45978;53.646;55.930;2022-11-02T03:08:42;97189.09;;;0.93;80.96
60101;BME280;45978;53.646;55.930;2022-11-02T03:09:57;97192.34;;;0.98;80.84
60101;BME280;45978;53.646;55.930;2022-11-02T03:11:16;97192.53;;;0.92;81.35
60101;BME280;45978;53.646;55.930;2022-11-02T03:14:00;97205.66;;;0.86;81.46
60101;BME280;45978;53.646;55.930;2022-11-02T03:18:11;97204.66;;;0.90;81.43
60101;BME280;45978;53.646;55.930;2022-11-02T03:20:41;97202.25;;;0.85;81.79
60101;BME280;45978;53.646;55.930;2022-11-02T03:21:57;97206.31;;;0.92;81.82
60101;BME280;45978;53.646;55.930;2022-11-02T03:23:17;97211.59;;;0.89;81.52
60101;BME280;45978;53.646;55.930;2022-11-02T03:24:36;97194.50;;;0.85;81.59
60101;BME280;45978;53.646;55.930;2022-11-02T03:27:24;97207.38;;;0.87;81.88
60101;BME280;45978;53.646;55.930;2022-11-02T03:30:11;97216.03;;;0.84;82.14
60101;BME280;45978;53.646;55.930;2022-11-02T03:33:14;97221.75;;;0.94;81.61
60101;BME280;45978;53.646;55.930;2022-11-02T03:35:38;97221.00;;;0.90;81.96
60101;BME280;45978;53.646;55.930;2022-11-02T03:36:50;97216.09;;;0.83;81.74
60101;BME280;45978;53.646;55.930;2022-11-02T03:38:11;97212.56;;;0.85;81.94
60101;BME280;45978;53.646;55.930;2022-11-02T03:39:18;97224.38;;;0.92;82.14
60101;BME280;45978;53.646;55.930;2022-11-02T03:40:28;97231.41;;;0.89;82.33
60101;BME280;45978;53.646;55.930;2022-11-02T03:41:35;97217.75;;;0.85;81.93
60101;BME280;45978;53.646;55.930;2022-11-02T03:42:39;97225.34;;;0.90;81.64
60101;BME280;45978;53.646;55.930;2022-11-02T03:43:46;97222.59;;;0.94;81.75
60101;BME280;45978;53.646;55.930;2022-11-02T03:44:54;97229.91;;;0.82;81.79
60101;BME280;45978;53.646;55.930;2022-11-02T03:46:00;97213.50;;;0.83;82.21
60101;BME280;45978;53.646;55.930;2022-11-02T03:47:03;97238.22;;;0.91;81.83
60101;BME280;45978;53.646;55.930;2022-11-02T03:48:08;97235.50;;;0.94;81.70
60101;BME280;45978;53.646;55.930;2022-11-02T03:49:14;97222.59;;;0.94;81.74
60101;BME280;45978;53.646;55.930;2022-11-02T03:50:21;97235.34;;;1.01;81.66
60101;BME280;45978;53.646;55.930;2022-11-02T03:51:24;97237.38;;;0.91;81.59
60101;BME280;45978;53.646;55.930;2022-11-02T03:52:29;97243.03;;;1.02;81.23
60101;BME280;45978;53.646;55.930;2022-11-02T03:54:05;97247.31;;;1.03;81.34
60101;BME280;45978;53.646;55.930;2022-11-02T03:56:43;97238.56;;;1.07;80.84
60101;BME280;45978;53.646;55.930;2022-11-02T03:57:48;97243.78;;;1.06;81.11
60101;BME280;45978;53.646;55.930;2022-11-02T03:58:53;97235.09;;;1.08;80.69
60101;BME280;45978;53.646;55.930;2022-11-02T04:00:07;97230.00;;;1.05;81.05
60101;BME280;45978;53.646;55.930;2022-11-02T04:01:16;97236.59;;;1.14;80.56
60101;BME280;45978;53.646;55.930;2022-11-02T04:02:19;97231.56;;;1.11;80.49
60101;BME280;45978;53.646;55.930;2022-11-02T04:03:22;97249.28;;;1.22;80.46
60101;BME280;45978;53.646;55.930;2022-11-02T04:04:24;97244.19;;;1.20;80.64
60101;BME280;45978;53.646;55.930;2022-11-02T04:05:31;97249.25;;;1.23;80.18
60101;BME280;45978;53.646;55.930;2022-11-02T04:06:36;97252.63;;;1.25;80.59
60101;BME280;45978;53.646;55.930;2022-11-02T04:07:40;97235.56;;;1.19;80.34
60101;BME280;45978;53.646;55.930;2022-11-02T04:09:02;97244.91;;;1.24;79.89
60101;BME280;45978;53.646;55.930;2022-11-02T04:10:04;97256.00;;;1.27;80.07
60101;BME280;45978;53.646;55.930;2022-11-02T04:11:07;97248.16;;;1.30;80.39
60101;BME280;45978;53.646;55.930;2022-11-02T04:12:29;97263.16;;;1.19;79.65
60101;BME280;45978;53.646;55.930;2022-11-02T04:13:50;97252.88;;;1.17;79.40
60101;BME280;45978;53.646;55.930;2022-11-02T04:15:14;97246.28;;;1.09;79.46
60101;BME280;45978;53.646;55.930;2022-11-02T04:16:16;97250.31;;;1.16;79.68
60101;BME280;45978;53.646;55.930;2022-11-02T04:17:17;97257.03;;;1.22;80.08
60101;BME280;45978;53.646;55.930;2022-11-02T04:18:44;97258.00;;;1.19;79.46
60101;BME280;45978;53.646;55.930;2022-11-02T04:20:04;97245.44;;;1.08;79.21
60101;BME280;45978;53.646;55.930;2022-11-02T04:21:06;97248.91;;;1.07;79.38
60101;BME280;45978;53.646;55.930;2022-11-02T04:22:07;97267.69;;;1.12;79.01
60101;BME280;45978;53.646;55.930;2022-11-02T04:23:38;97269.38;;;1.13;79.12
60101;BME280;45978;53.646;55.930;2022-11-02T04:24:59;97258.94;;;1.16;79.01
60101;BME280;45978;53.646;55.930;2022-11-02T04:26:33;97270.06;;;1.18;79.13
60101;BME280;45978;53.646;55.930;2022-11-02T04:27:36;97271.75;;;1.19;78.81
60101;BME280;45978;53.646;55.930;2022-11-02T04:28:39;97270.97;;;1.17;78.46
60101;BME280;45978;53.646;55.930;2022-11-02T04:29:41;97262.28;;;1.20;78.80
60101;BME280;45978;53.646;55.930;2022-11-02T04:30:43;97277.88;;;1.17;78.49
60101;BME280;45978;53.646;55.930;2022-11-02T04:31:44;97267.69;;;1.12;78.46
60101;BME280;45978;53.646;55.930;2022-11-02T04:32:49;97270.75;;;1.24;78.66
60101;BME280;45978;53.646;55.930;2022-11-02T04:34:17;97259.97;;;1.11;78.17
60101;BME280;45978;53.646;55.930;2022-11-02T04:35:18;97293.97;;;1.25;77.83
60101;BME280;45978;53.646;55.930;2022-11-02T04:36:20;97286.47;;;1.17;78.09
60101;BME280;45978;53.646;55.930;2022-11-02T04:37:27;97267.88;;;1.06;78.14
60101;BME280;45978;53.646;55.930;2022-11-02T04:38:46;97274.75;;;1.07;77.91
60101;BME280;45978;53.646;55.930;2022-11-02T04:40:14;97286.69;;;1.10;77.38
60101;BME280;45978;53.646;55.930;2022-11-02T04:41:19;97280.06;;;1.03;77.95
60101;BME280;45978;53.646;55.930;2022-11-02T04:42:46;97284.88;;;1.13;78.14
60101;BME280;45978;53.646;55.930;2022-11-02T04:43:47;97291.84;;;1.11;77.23
60101;BME280;45978;53.646;55.930;2022-11-02T04:44:52;97284.19;;;1.08;77.98
60101;BME280;45978;53.646;55.930;2022-11-02T04:45:57;97281.53;;;1.10;77.92
60101;BME280;45978;53.646;55.930;2022-11-02T04:46:59;97281.53;;;1.10;77.62
60101;BME280;45978;53.646;55.930;2022-11-02T04:48:08;97286.38;;;1.21;77.17
60101;BME280;45978;53.646;55.930;2022-11-02T04:49:11;97282.31;;;1.12;77.44
60101;BME280;45978;53.646;55.930;2022-11-02T04:50:13;97284.91;;;1.12;77.29
60101;BME280;45978;53.646;55.930;2022-11-02T04:51:19;97282.78;;;0.98;77.78
60101;BME280;45978;53.646;55.930;2022-11-02T04:52:25;97286.56;;;1.14;78.16
60101;BME280;45978;53.646;55.930;2022-11-02T04:53:27;97284.66;;;1.19;77.36
60101;BME280;45978;53.646;55.930;2022-11-02T04:54:30;97288.06;;;1.22;78.08
60101;BME280;45978;53.646;55.930;2022-11-02T04:55:36;97286.06;;;1.30;77.89
60101;BME280;45978;53.646;55.930;2022-11-02T04:56:37;97286.22;;;1.25;77.70
60101;BME280;45978;53.646;55.930;2022-11-02T04:57:43;97278.75;;;1.16;77.06
60101;BME280;45978;53.646;55.930;2022-11-02T04:58:52;97283.00;;;1.18;77.10
60101;BME280;45978;53.646;55.930;2022-11-02T04:59:54;97282.88;;;1.22;77.62
60101;BME280;45978;53.646;55.930;2022-11-02T05:00:55;97287.84;;;1.28;77.28
60101;BME280;45978;53.646;55.930;2022-11-02T05:01:57;97293.56;;;1.37;77.20
60101;BME280;45978;53.646;55.930;2022-11-02T05:02:58;97303.31;;;1.29;76.98
60101;BME280;45978;53.646;55.930;2022-11-02T05:04:00;97286.97;;;1.29;77.18
60101;BME280;45978;53.646;55.930;2022-11-02T05:05:07;97294.81;;;1.26;77.34
60101;BME280;45978;53.646;55.930;2022-11-02T05:06:09;97295.56;;;1.29;77.24
60101;BME280;45978;53.646;55.930;2022-11-02T05:07:11;97291.94;;;1.35;77.29
60101;BME280;45978;53.646;55.930;2022-11-02T05:08:13;97292.13;;;1.29;77.59
60101;BME280;45978;53.646;55.930;2022-11-02T05:09:14;97255.41;;;1.19;77.37
60101;BME280;45978;53.646;55.930;2022-11-02T05:10:19;97300.31;;;1.42;77.49
60101;BME280;45978;53.646;55.930;2022-11-02T05:11:22;97275.84;;;1.27;77.30
60101;BME280;45978;53.646;55.930;2022-11-02T05:12:24;97269.81;;;1.26;77.30
60101;BME280;45978;53.646;55.930;2022-11-02T05:13:27;97291.38;;;1.25;77.10
60101;BME280;45978;53.646;55.930;2022-11-02T05:14:31;97285.34;;;1.26;77.07
60101;BME280;45978;53.646;55.930;2022-11-02T05:15:34;97303.19;;;1.34;77.27
60101;BME280;45978;53.646;55.930;2022-11-02T05:16:40;97299.84;;;1.30;77.55
60101;BME280;45978;53.646;55.930;2022-11-02T05:17:47;97305.66;;;1.37;77.27
60101;BME280;45978;53.646;55.930;2022-11-02T05:18:48;97277.63;;;1.25;77.14
60101;BME280;45978;53.646;55.930;2022-11-02T05:19:53;97301.41;;;1.36;77.31
60101;BME280;45978;53.646;55.930;2022-11-02T05:20:57;97308.47;;;1.29;76.54
60101;BME280;45978;53.646;55.930;2022-11-02T05:22:01;97280.66;;;1.11;77.23
60101;BME280;45978;53.646;55.930;2022-11-02T05:23:03;97309.19;;;1.34;77.24
60101;BME280;45978;53.646;55.930;2022-11-02T05:24:06;97276.53;;;1.32;77.15
60101;BME280;45978;53.646;55.930;2022-11-02T05:25:09;97308.94;;;1.42;77.55
60101;BME280;45978;53.646;55.930;2022-11-02T05:26:11;97306.25;;;1.45;77.08
60101;BME280;45978;53.646;55.930;2022-11-02T05:27:16;97322.66;;;1.44;76.33
60101;BME280;45978;53.646;55.930;2022-11-02T05:28:19;97302.22;;;1.36;76.83
60101;BME280;45978;53.646;55.930;2022-11-02T05:29:21;97309.97;;;1.36;76.79
60101;BME280;45978;53.646;55.930;2022-11-02T05:30:23;97309.00;;;1.41;77.16
60101;BME280;45978;53.646;55.930;2022-11-02T05:31:28;97306.31;;;1.44;76.93
60101;BME280;45978;53.646;55.930;2022-11-02T05:32:31;97303.28;;;1.31;77.11
60101;BME280;45978;53.646;55.930;2022-11-02T05:33:33;97304.63;;;1.43;77.13
60101;BME280;45978;53.646;55.930;2022-11-02T05:34:40;97302.19;;;1.38;77.25
60101;BME280;45978;53.646;55.930;2022-11-02T05:35:43;97297.69;;;1.43;77.54
60101;BME280;45978;53.646;55.930;2022-11-02T05:36:47;97304.25;;;1.53;76.99
60101;BME280;45978;53.646;55.930;2022-11-02T05:37:54;97304.25;;;1.53;77.14
60101;BME280;45978;53.646;55.930;2022-11-02T05:38:55;97299.16;;;1.52;77.19
60101;BME280;45978;53.646;55.930;2022-11-02T05:39:58;97304.38;;;1.50;76.79
60101;BME280;45978;53.646;55.930;2022-11-02T05:41:04;97293.22;;;1.48;76.71
60101;BME280;45978;53.646;55.930;2022-11-02T05:42:09;97312.63;;;1.62;76.37
60101;BME280;45978;53.646;55.930;2022-11-02T05:43:12;97330.81;;;1.58;76.90
60101;BME280;45978;53.646;55.930;2022-11-02T05:44:18;97324.09;;;1.53;76.96
60101;BME280;45978;53.646;55.930;2022-11-02T05:45:20;97314.66;;;1.52;77.06
60101;BME280;45978;53.646;55.930;2022-11-02T05:46:21;97324.94;;;1.53;76.97
60101;BME280;45978;53.646;55.930;2022-11-02T05:47:23;97305.44;;;1.43;76.96
60101;BME280;45978;53.646;55.930;2022-11-02T05:48:30;97326.09;;;1.45;77.53
60101;BME280;45978;53.646;55.930;2022-11-02T05:49:31;97321.41;;;1.56;77.54
60101;BME280;45978;53.646;55.930;2022-11-02T05:50:35;97323.16;;;1.55;77.46
60101;BME280;45978;53.646;55.930;2022-11-02T05:51:42;97327.22;;;1.63;77.43
60101;BME280;45978;53.646;55.930;2022-11-02T05:52:43;97332.31;;;1.66;77.38
60101;BME280;45978;53.646;55.930;2022-11-02T05:53:45;97323.59;;;1.68;77.51
60101;BME280;45978;53.646;55.930;2022-11-02T05:54:46;97321.16;;;1.64;77.25
60101;BME280;45978;53.646;55.930;2022-11-02T05:55:47;97332.09;;;1.72;77.25
60101;BME280;45978;53.646;55.930;2022-11-02T05:56:49;97336.81;;;1.59;77.06
60101;BME280;45978;53.646;55.930;2022-11-02T05:57:55;97335.41;;;1.50;77.76
60101;BME280;45978;53.646;55.930;2022-11-02T05:58:57;97325.88;;;1.51;78.16
60101;BME280;45978;53.646;55.930;2022-11-02T06:00:00;97326.63;;;1.54;77.86
60101;BME280;45978;53.646;55.930;2022-11-02T06:01:04;97343.69;;;1.60;77.86
60101;BME280;45978;53.646;55.930;2022-11-02T06:02:08;97344.91;;;1.75;77.64
60101;BME280;45978;53.646;55.930;2022-11-02T06:03:10;97338.69;;;1.55;77.94
60101;BME280;45978;53.646;55.930;2022-11-02T06:04:11;97341.16;;;1.58;77.71
60101;BME280;45978;53.646;55.930;2022-11-02T06:05:13;97329.59;;;1.44;78.19
60101;BME280;45978;53.646;55.930;2022-11-02T06:06:14;97325.59;;;1.60;78.11
60101;BME280;45978;53.646;55.930;2022-11-02T06:07:15;97351.66;;;1.79;77.49
60101;BME280;45978;53.646;55.930;2022-11-02T06:08:17;97334.22;;;1.59;77.48
60101;BME280;45978;53.646;55.930;2022-11-02T06:09:18;97346.50;;;1.79;77.23
60101;BME280;45978;53.646;55.930;2022-11-02T06:10:21;97343.72;;;1.85;76.91
60101;BME280;45978;53.646;55.930;2022-11-02T06:11:22;97336.19;;;2.03;76.79
60101;BME280;45978;53.646;55.930;2022-11-02T06:12:25;97350.22;;;2.46;76.14
60101;BME280;45978;53.646;55.930;2022-11-02T06:13:26;97333.47;;;2.56;74.56
60101;BME280;45978;53.646;55.930;2022-11-02T06:14:30;97338.22;;;2.90;74.15
60101;BME280;45978;53.646;55.930;2022-11-02T06:15:33;97354.72;;;2.88;73.41
60101;BME280;45978;53.646;55.930;2022-11-02T06:16:35;97332.78;;;2.74;73.20
60101;BME280;45978;53.646;55.930;2022-11-02T06:17:40;97344.69;;;2.78;73.20
60101;BME280;45978;53.646;55.930;2022-11-02T06:18:42;97355.38;;;2.93;73.27
60101;BME280;45978;53.646;55.930;2022-11-02T06:19:44;97342.56;;;2.90;73.24
60101;BME280;45978;53.646;55.930;2022-11-02T06:20:45;97340.94;;;2.87;72.67